Time;durP1;ratioP1;P1;durP2;ratioP2;P2;SDS_P1;SDS_P2;PMS_P1;PMS_P2;Temp;Humidity;BMP_temperature;BMP_pressure;BME280_temperature;BME280_humidity;BME280_pressure;Samples;Min_cycle;Max_cycle;Signal;HPM_P1;HPM_P2
2022/03/20 00:00:54;;;;;;;38.08;16.00;;;;;;;-1.37;65.96;102322.41;5102081;28;20040;-79
2022/03/20 00:03:39;;;;;;;33.85;16.25;;;;;;;-1.48;66.88;102327.75;5101887;28;20044;-80
2022/03/20 00:06:23;;;;;;;37.20;17.40;;;;;;;-1.56;67.47;102330.63;5117038;28;20443;-80
2022/03/20 00:09:07;;;;;;;30.83;16.27;;;;;;;-1.53;67.78;102331.69;5101941;28;20106;-80
2022/03/20 00:11:51;;;;;;;33.67;17.65;;;;;;;-1.54;67.63;102324.78;5101811;28;20044;-79
2022/03/20 00:14:35;;;;;;;35.45;16.55;;;;;;;-1.54;67.58;102332.50;5116839;28;20036;-79
2022/03/20 00:17:22;;;;;;;32.90;15.43;;;;;;;-1.58;67.37;102322.81;5101797;28;20050;-80
2022/03/20 00:20:07;;;;;;;34.85;16.85;;;;;;;-1.67;68.20;102314.50;5087469;28;20039;-79
2022/03/20 00:22:52;;;;;;;38.30;16.90;;;;;;;-1.63;68.09;102326.75;5087479;28;20040;-79
2022/03/20 00:25:39;;;;;;;37.08;16.60;;;;;;;-1.66;68.31;102318.84;5116600;28;20087;-79
2022/03/20 00:28:25;;;;;;;38.55;17.85;;;;;;;-1.73;68.67;102317.56;5101643;28;20043;-79
2022/03/20 00:31:09;;;;;;;34.05;17.30;;;;;;;-1.71;68.42;102315.13;5116703;28;20044;-79
2022/03/20 00:33:54;;;;;;;32.00;16.05;;;;;;;-1.78;68.52;102307.81;5101511;28;20444;-79
2022/03/20 00:36:38;;;;;;;42.15;18.67;;;;;;;-1.86;69.77;102312.44;5101414;28;20061;-79
2022/03/20 00:39:23;;;;;;;32.00;16.27;;;;;;;-1.90;69.69;102311.34;5101549;28;20337;-79
2022/03/20 00:42:07;;;;;;;33.83;16.52;;;;;;;-1.94;70.66;102317.09;5100977;28;20063;-79
2022/03/20 00:44:52;;;;;;;32.30;15.55;;;;;;;-1.93;70.25;102320.53;5101328;28;20040;-79
2022/03/20 00:47:37;;;;;;;32.58;15.85;;;;;;;-2.00;70.95;102313.22;5101428;28;20051;-79
2022/03/20 00:50:22;;;;;;;39.60;16.42;;;;;;;-1.99;70.82;102327.84;5116935;28;20051;-79
2022/03/20 00:53:07;;;;;;;35.35;16.23;;;;;;;-1.95;69.80;102320.47;5116882;28;20428;-79
2022/03/20 00:55:52;;;;;;;31.58;16.02;;;;;;;-1.92;68.67;102317.16;5116956;28;20040;-79
2022/03/20 00:58:36;;;;;;;34.63;15.68;;;;;;;-1.96;68.46;102317.78;5101857;28;20482;-79
2022/03/20 01:01:20;;;;;;;32.92;15.10;;;;;;;-1.99;68.57;102323.59;5102109;28;20452;-79
2022/03/20 01:04:05;;;;;;;38.10;16.00;;;;;;;-2.07;68.26;102317.06;5117147;28;20043;-79
2022/03/20 01:06:49;;;;;;;35.08;17.08;;;;;;;-2.04;68.58;102319.84;5116893;28;20051;-79
2022/03/20 01:09:34;;;;;;;32.50;16.15;;;;;;;-2.06;68.44;102316.28;5101838;28;20036;-79
2022/03/20 01:12:19;;;;;;;33.28;15.57;;;;;;;-2.08;67.84;102316.97;5117000;28;20044;-79
2022/03/20 01:15:07;;;;;;;36.10;15.88;;;;;;;-2.21;68.42;102311.03;5117147;28;20068;-79
2022/03/20 01:17:52;;;;;;;34.92;15.82;;;;;;;-2.15;68.15;102324.25;5117045;28;20035;-79
2022/03/20 01:20:36;;;;;;;35.30;16.38;;;;;;;-2.21;68.81;102321.31;5117116;28;20360;-79
2022/03/20 01:23:21;;;;;;;34.60;16.85;;;;;;;-2.28;69.14;102311.41;5117202;28;20036;-79
2022/03/20 01:26:05;;;;;;;38.08;16.83;;;;;;;-2.25;68.73;102309.03;5116876;28;20055;-79
2022/03/20 01:28:50;;;;;;;37.10;16.20;;;;;;;-2.27;68.23;102314.88;5101903;28;20058;-79
2022/03/20 01:31:35;;;;;;;31.95;14.15;;;;;;;-2.27;68.05;102309.75;5101933;28;20047;-79
2022/03/20 01:34:20;;;;;;;36.85;16.15;;;;;;;-2.31;68.07;102308.63;5116928;28;20108;-79
2022/03/20 01:37:05;;;;;;;35.20;16.50;;;;;;;-2.31;67.77;102310.31;5087447;28;20118;-79
2022/03/20 01:39:52;;;;;;;34.80;16.65;;;;;;;-2.32;67.82;102314.56;5101828;28;20062;-79
2022/03/20 01:42:39;;;;;;;37.75;16.88;;;;;;;-2.44;69.60;102308.59;5116725;28;20050;-79
2022/03/20 01:45:24;;;;;;;47.28;17.67;;;;;;;-2.49;69.23;102305.72;5116652;28;20043;-79
2022/03/20 01:48:09;;;;;;;43.65;20.65;;;;;;;-2.52;70.34;102318.34;5101750;28;20040;-79
2022/03/20 01:50:54;;;;;;;34.17;19.05;;;;;;;-2.53;70.17;102311.44;5101547;28;20041;-79
2022/03/20 01:53:39;;;;;;;40.67;19.25;;;;;;;-2.57;70.34;102301.75;5104584;28;20047;-78
2022/03/20 01:56:24;;;;;;;41.47;18.95;;;;;;;-2.56;70.84;102307.78;5091274;28;20126;-78
2022/03/20 01:59:08;;;;;;;35.30;17.40;;;;;;;-2.61;71.00;102304.88;5120570;28;20044;-78
2022/03/20 02:01:53;;;;;;;37.10;17.48;;;;;;;-2.60;70.95;102309.22;5120409;28;20055;-79
2022/03/20 02:04:39;;;;;;;32.22;16.73;;;;;;;-2.65;70.26;102290.97;5105121;28;20043;-78
2022/03/20 02:07:25;;;;;;;36.53;17.88;;;;;;;-2.66;71.02;102302.03;5105131;28;20050;-79
2022/03/20 02:10:10;;;;;;;36.85;17.60;;;;;;;-2.68;70.44;102295.00;5105403;28;20051;-78
2022/03/20 02:12:55;;;;;;;38.28;17.35;;;;;;;-2.74;71.85;102307.41;5105461;28;20101;-78
2022/03/20 02:15:39;;;;;;;40.47;18.23;;;;;;;-2.68;70.67;102305.28;5120252;28;20066;-78
2022/03/20 02:18:24;;;;;;;36.38;18.02;;;;;;;-2.75;70.92;102300.50;5120105;28;20044;-78
2022/03/20 02:21:09;;;;;;;37.17;17.83;;;;;;;-2.74;70.46;102309.97;5120318;28;20118;-78
2022/03/20 02:23:53;;;;;;;39.17;18.40;;;;;;;-2.82;71.00;102292.38;5104931;28;20414;-78
2022/03/20 02:26:37;;;;;;;35.55;17.30;;;;;;;-2.85;71.21;102294.75;5104882;28;20108;-78
2022/03/20 02:29:22;;;;;;;35.05;17.60;;;;;;;-2.88;72.05;102298.78;5119926;28;20035;-78
2022/03/20 02:32:09;;;;;;;37.50;17.27;;;;;;;-2.87;72.15;102300.53;5105223;28;20044;-78
2022/03/20 02:34:56;;;;;;;34.67;16.92;;;;;;;-2.87;72.37;102295.41;5119642;28;20428;-78
2022/03/20 02:37:46;;;;;;;27.98;13.52;;;;;;;-2.86;71.50;102289.50;5104600;28;20114;-78
2022/03/20 02:40:31;;;;;;;32.72;15.35;;;;;;;-2.90;71.62;102284.94;5104943;28;20451;-78
2022/03/20 02:43:16;;;;;;;38.38;16.92;;;;;;;-2.92;72.03;102289.09;5104957;28;20116;-78
2022/03/20 02:46:01;;;;;;;32.67;15.77;;;;;;;-2.87;71.62;102285.16;5120035;28;20040;-78
2022/03/20 02:48:46;;;;;;;27.60;15.35;;;;;;;-2.92;72.17;102289.09;5119891;28;20071;-78
2022/03/20 02:51:31;;;;;;;40.85;17.00;;;;;;;-2.94;72.19;102286.41;5119614;28;20043;-78
2022/03/20 02:54:15;;;;;;;29.70;14.35;;;;;;;-3.02;73.48;102287.56;5104483;28;20040;-78
2022/03/20 02:57:05;;;;;;;36.72;15.45;;;;;;;-3.07;73.58;102276.97;5090427;28;20340;-78
2022/03/20 02:59:49;;;;;;;45.38;18.85;;;;;;;-3.02;73.59;102279.88;5104204;28;20040;-78
2022/03/20 03:02:36;;;;;;;35.47;15.07;;;;;;;-2.99;72.98;102286.88;5119693;28;20044;-78
2022/03/20 03:05:26;;;;;;;31.00;14.45;;;;;;;-2.99;73.02;102284.31;5119203;27;20039;-78
2022/03/20 03:11:13;;;;;;;35.05;15.48;;;;;;;-3.18;74.47;102279.59;5119758;28;20047;-78
2022/03/20 03:15:18;;;;;;;31.63;16.27;;;;;;;-3.06;73.90;102295.81;5119281;28;20043;-78
2022/03/20 03:17:03;;;;;;;34.15;16.40;;;;;;;-3.06;73.61;102280.44;5104207;28;20126;-79
2022/03/20 03:19:47;;;;;;;30.75;14.35;;;;;;;-3.07;73.45;102289.81;5119014;28;20428;-78
2022/03/20 03:22:31;;;;;;;37.05;17.23;;;;;;;-3.03;72.96;102275.50;5103812;28;20040;-78
2022/03/20 03:25:17;;;;;;;32.05;15.10;;;;;;;-3.05;73.00;102279.66;5104050;28;20052;-78
2022/03/20 03:28:01;;;;;;;32.17;15.25;;;;;;;-3.06;72.52;102283.00;5104207;28;20398;-78
2022/03/20 03:30:48;;;;;;;39.33;16.27;;;;;;;-3.12;73.47;102282.56;5119075;28;20039;-78
2022/03/20 03:33:34;;;;;;;30.77;14.05;;;;;;;-3.13;72.98;102274.00;5119155;28;20065;-78
2022/03/20 03:36:19;;;;;;;31.35;15.07;;;;;;;-3.15;72.38;102279.78;5104076;28;20048;-78
2022/03/20 03:39:03;;;;;;;30.80;13.95;;;;;;;-3.23;72.80;102276.72;5118939;28;20070;-78
2022/03/20 03:41:51;;;;;;;34.63;14.88;;;;;;;-3.36;74.14;102284.31;5103989;28;20039;-78
2022/03/20 03:44:35;;;;;;;36.28;17.35;;;;;;;-3.42;74.43;102278.75;5104138;28;20058;-78
2022/03/20 03:47:20;;;;;;;37.13;16.30;;;;;;;-3.45;75.56;102279.44;5119348;28;20036;-78
2022/03/20 03:50:05;;;;;;;40.03;16.38;;;;;;;-3.41;75.08;102275.41;5119110;28;20047;-78
2022/03/20 03:52:50;;;;;;;32.78;15.52;;;;;;;-3.40;74.94;102277.22;5104078;28;20463;-78
2022/03/20 03:55:34;;;;;;;32.25;14.65;;;;;;;-3.44;74.22;102276.09;5119137;28;20039;-78
2022/03/20 03:58:19;;;;;;;31.60;13.98;;;;;;;-3.45;74.25;102273.41;5089569;28;20347;-78
2022/03/20 04:01:03;;;;;;;33.10;15.35;;;;;;;-3.50;73.89;102280.78;5104053;28;20039;-78
2022/03/20 04:03:47;;;;;;;32.03;15.32;;;;;;;-3.58;75.81;102279.34;5103952;28;20046;-78
2022/03/20 04:06:34;;;;;;;29.55;15.68;;;;;;;-3.59;74.94;102275.91;5067171;28;20109;-78
2022/03/20 04:09:18;;;;;;;39.22;16.70;;;;;;;-3.58;75.01;102280.22;5078499;28;20037;-78
2022/03/20 04:12:04;;;;;;;32.65;14.68;;;;;;;-3.58;74.36;102276.78;5049835;28;20119;-78
2022/03/20 04:14:48;;;;;;;28.40;13.50;;;;;;;-3.63;74.72;102286.72;5064058;28;20098;-78
2022/03/20 04:17:33;;;;;;;35.65;15.88;;;;;;;-3.63;74.90;102280.69;5077932;28;20056;-78
2022/03/20 04:20:19;;;;;;;34.72;15.13;;;;;;;-3.65;75.55;102280.56;5049812;28;20044;-78
2022/03/20 04:26:07;;;;;;;28.17;13.50;;;;;;;-3.68;75.94;102289.72;5063118;28;20049;-78
2022/03/20 04:28:52;;;;;;;34.28;15.23;;;;;;;-3.67;76.75;102287.28;5063380;28;20052;-78
2022/03/20 04:31:37;;;;;;;34.22;16.25;;;;;;;-3.72;77.49;102286.06;5078284;28;20349;-78
2022/03/20 04:34:24;;;;;;;34.22;15.65;;;;;;;-3.67;77.43;102291.50;5063469;28;20036;-78
2022/03/20 04:37:10;;;;;;;31.88;15.23;;;;;;;-3.68;76.93;102294.84;5078786;28;20040;-78
2022/03/20 04:39:54;;;;;;;32.13;14.48;;;;;;;-3.71;76.51;102294.63;5063824;28;20447;-78
2022/03/20 04:42:38;;;;;;;32.58;15.45;;;;;;;-3.74;77.64;102290.16;5078527;28;20090;-78
2022/03/20 04:45:23;;;;;;;30.23;14.10;;;;;;;-3.69;76.14;102293.97;5063582;28;20124;-78
2022/03/20 05:00:22;;;;;;;31.35;15.88;;;;;;;-3.86;78.84;102290.19;5063757;28;20048;-78
2022/03/20 05:03:07;;;;;;;35.75;15.80;;;;;;;-3.78;78.93;102304.41;5063338;28;20421;-78
2022/03/20 05:05:51;;;;;;;29.00;13.23;;;;;;;-3.76;78.06;102299.44;5063605;28;20036;-78
2022/03/20 05:08:36;;;;;;;31.23;14.93;;;;;;;-3.78;79.14;102309.53;5078474;28;20041;-78
2022/03/20 05:14:24;;;;;;;29.02;14.45;;;;;;;-3.66;78.16;102318.91;5063016;28;20049;-78
2022/03/20 05:17:09;;;;;;;32.33;14.57;;;;;;;-3.61;77.45;102309.88;5062703;28;20041;-78
2022/03/20 05:19:53;;;;;;;39.38;18.30;;;;;;;-3.61;78.42;102313.31;5064896;28;20048;-78
2022/03/20 05:22:39;;;;;;;46.78;24.02;;;;;;;-3.52;77.85;102319.09;5081539;28;20044;-78
2022/03/20 05:25:25;;;;;;;39.13;19.63;;;;;;;-3.40;77.31;102316.53;5065128;28;20170;-78
2022/03/20 05:28:10;;;;;;;39.03;19.13;;;;;;;-3.32;76.92;102325.66;5066686;28;20437;-78
2022/03/20 05:30:54;;;;;;;32.55;14.75;;;;;;;-3.24;76.17;102315.94;5082590;28;20041;-78
2022/03/20 05:33:41;;;;;;;36.20;15.90;;;;;;;-3.17;75.74;102312.16;5068156;28;20041;-78
2022/03/20 05:36:29;;;;;;;31.23;15.63;;;;;;;-3.06;75.29;102318.91;5067303;28;20080;-78
2022/03/20 05:39:13;;;;;;;33.67;15.60;;;;;;;-3.02;75.14;102318.34;5067285;28;20044;-78
2022/03/20 05:41:57;;;;;;;35.35;15.10;;;;;;;-2.88;74.66;102332.13;5081899;28;20417;-78
2022/03/20 05:44:44;;;;;;;30.25;14.82;;;;;;;-2.84;74.30;102334.09;5052693;28;20040;-78
2022/03/20 05:47:32;;;;;;;35.00;16.92;;;;;;;-2.60;73.82;102328.09;5081245;28;20041;-78
2022/03/20 05:50:16;;;;;;;40.63;17.45;;;;;;;-2.04;71.41;102331.81;5065369;28;20063;-78
2022/03/20 05:53:00;;;;;;;36.55;17.55;;;;;;;-1.32;68.89;102334.75;5079344;28;20041;-78
2022/03/20 05:58:48;;;;;;;40.07;17.63;;;;;;;-0.29;62.63;102341.94;5078959;28;20070;-77
2022/03/20 06:01:33;;;;;;;40.33;18.40;;;;;;;0.56;62.23;102336.47;5078969;28;20043;-77
2022/03/20 06:04:19;;;;;;;46.38;18.95;;;;;;;1.04;60.21;102337.34;5079301;28;20119;-78
2022/03/20 06:07:03;;;;;;;62.63;27.00;;;;;;;1.29;56.68;102340.44;5064059;28;20433;-78
2022/03/20 06:09:48;;;;;;;58.72;25.63;;;;;;;1.70;56.71;102333.94;5079335;28;20040;-78
2022/03/20 06:12:32;;;;;;;51.35;23.23;;;;;;;2.07;55.34;102339.25;5064009;28;20040;-78
2022/03/20 06:15:16;;;;;;;39.40;20.38;;;;;;;2.13;53.53;102337.81;5078889;28;20421;-78
2022/03/20 06:18:04;;;;;;;40.00;20.67;;;;;;;2.81;53.21;102342.81;5050379;28;20037;-78
2022/03/20 06:20:49;;;;;;;45.42;20.58;;;;;;;3.36;51.22;102336.69;5078749;28;20048;-78
2022/03/20 06:23:34;;;;;;;44.17;20.88;;;;;;;3.62;51.23;102340.41;5079099;28;20060;-78
2022/03/20 06:26:18;;;;;;;59.55;28.08;;;;;;;3.82;51.33;102334.38;5049426;28;20404;-79
2022/03/20 06:29:07;;;;;;;47.80;25.10;;;;;;;4.36;49.50;102339.22;5063644;28;20048;-78
2022/03/20 06:31:52;;;;;;;48.25;25.52;;;;;;;4.63;48.08;102349.78;5078745;28;20052;-78
2022/03/20 06:34:37;;;;;;;44.42;22.02;;;;;;;4.55;47.17;102349.50;5049582;28;20045;-78
2022/03/20 06:37:21;;;;;;;37.28;18.85;;;;;;;5.32;46.62;102349.81;5063447;28;20348;-79
2022/03/20 06:40:07;;;;;;;34.80;19.25;;;;;;;5.69;45.10;102336.44;5062832;28;20036;-79
2022/03/20 06:42:52;;;;;;;32.70;18.70;;;;;;;5.27;44.66;102348.78;5078148;28;20044;-80
2022/03/20 06:45:37;;;;;;;39.80;20.90;;;;;;;5.71;45.33;102359.88;5063224;28;20045;-78
2022/03/20 06:48:21;;;;;;;33.45;17.80;;;;;;;5.00;45.25;102361.59;5076354;28;20044;-78
2022/03/20 06:51:05;;;;;;;35.40;18.15;;;;;;;5.57;44.24;102357.69;5061440;28;20045;-79
2022/03/20 06:53:53;;;;;;;35.78;18.88;;;;;;;4.64;45.68;102359.34;5061394;28;20045;-79
2022/03/20 06:56:37;;;;;;;34.20;20.45;;;;;;;5.02;43.96;102355.63;5076198;28;20056;-79
2022/03/20 06:59:22;;;;;;;40.58;20.98;;;;;;;5.66;44.18;102357.13;5061287;28;20036;-79
2022/03/20 07:02:06;;;;;;;37.38;19.73;;;;;;;5.71;42.13;102354.69;5061133;28;20040;-79
2022/03/20 07:04:51;;;;;;;36.30;18.83;;;;;;;6.08;42.82;102352.56;5076056;28;20048;-79
2022/03/20 07:07:35;;;;;;;34.63;17.80;;;;;;;6.27;42.10;102367.06;5076000;28;20036;-79
2022/03/20 07:10:24;;;;;;;31.83;17.52;;;;;;;6.19;41.39;102357.22;5061117;28;20041;-79
2022/03/20 07:16:14;;;;;;;31.00;16.83;;;;;;;7.53;39.78;102365.66;5062231;28;20044;-79
2022/03/20 07:18:59;;;;;;;33.60;18.58;;;;;;;7.26;37.96;102368.38;5078037;28;20036;-80
2022/03/20 07:21:44;;;;;;;30.17;16.85;;;;;;;7.38;38.38;102365.25;5062672;28;20046;-80
2022/03/20 07:24:28;;;;;;;34.17;18.92;;;;;;;7.47;37.97;102369.00;5049106;28;20045;-81
2022/03/20 07:30:15;;;;;;;28.40;17.33;;;;;;;7.41;37.62;102371.44;5062494;28;20358;-80
2022/03/20 07:32:59;;;;;;;31.55;16.95;;;;;;;7.91;36.95;102364.09;5062690;28;20096;-80
2022/03/20 07:35:44;;;;;;;36.13;18.83;;;;;;;7.63;38.07;102364.19;5062271;28;20044;-85
2022/03/20 07:38:28;;;;;;;29.75;17.08;;;;;;;7.85;37.89;102363.94;5062289;28;20040;-83
2022/03/20 07:41:13;;;;;;;35.05;19.05;;;;;;;7.96;37.54;102359.00;5048268;28;20036;-84
2022/03/20 07:43:57;;;;;;;38.85;22.60;;;;;;;7.67;37.51;102366.03;5048410;28;20489;-84
2022/03/20 07:46:41;;;;;;;34.58;19.48;;;;;;;8.16;36.84;102360.41;5062119;28;20424;-83
2022/03/20 07:49:26;;;;;;;41.13;23.58;;;;;;;8.38;36.33;102360.97;5062097;28;20054;-83
2022/03/20 07:52:11;;;;;;;33.15;18.90;;;;;;;8.72;35.41;102372.22;5076633;28;20326;-85
2022/03/20 07:54:55;;;;;;;46.55;24.13;;;;;;;9.12;36.05;102371.38;5062269;28;20107;-83
2022/03/20 07:57:41;;;;;;;56.28;28.58;;;;;;;8.87;34.76;102377.78;5076743;28;20102;-85
2022/03/20 08:00:26;;;;;;;45.08;26.38;;;;;;;8.77;34.78;102363.63;5062452;28;20040;-80
2022/03/20 08:03:10;;;;;;;31.67;17.35;;;;;;;8.81;34.79;102364.59;5062020;28;20076;-80
2022/03/20 08:05:57;;;;;;;39.35;21.38;;;;;;;9.35;35.59;102357.03;5076856;28;20441;-79
2022/03/20 08:08:42;;;;;;;31.15;17.67;;;;;;;9.12;33.11;102374.00;5061834;28;20040;-82
2022/03/20 08:11:28;;;;;;;29.67;17.42;;;;;;;9.01;32.68;102368.53;5062233;28;20185;-81
2022/03/20 08:14:13;;;;;;;27.27;16.27;;;;;;;8.65;33.06;102368.59;5061586;28;20391;-81
2022/03/20 08:16:57;;;;;;;34.00;18.10;;;;;;;8.77;33.24;102362.75;5061581;28;20047;-82
2022/03/20 08:19:43;;;;;;;28.58;16.77;;;;;;;8.79;32.77;102361.06;5076371;28;20425;-81
2022/03/20 08:22:27;;;;;;;27.55;16.08;;;;;;;8.74;32.89;102363.59;5076935;28;20123;-81
2022/03/20 08:25:11;;;;;;;25.63;15.65;;;;;;;8.87;33.46;102362.09;5076133;28;20064;-80
2022/03/20 08:27:56;;;;;;;25.58;15.20;;;;;;;9.08;33.29;102362.59;5061433;28;20111;-79
2022/03/20 08:30:40;;;;;;;30.63;15.52;;;;;;;9.08;32.00;102364.31;5062037;28;20044;-81
2022/03/20 08:33:25;;;;;;;26.40;15.40;;;;;;;8.86;32.44;102365.56;5076787;28;20051;-81
2022/03/20 08:36:12;;;;;;;26.88;15.88;;;;;;;8.97;33.18;102358.88;5061428;28;20036;-81
2022/03/20 08:38:56;;;;;;;29.15;17.85;;;;;;;9.07;32.60;102352.09;5047778;28;20401;-81
2022/03/20 08:41:43;;;;;;;37.88;18.55;;;;;;;9.47;31.91;102368.63;5061298;28;20044;-82
2022/03/20 08:44:28;;;;;;;30.83;17.20;;;;;;;9.50;32.52;102359.09;5061220;28;20044;-81
2022/03/20 08:47:12;;;;;;;31.27;14.85;;;;;;;9.70;31.36;102345.50;5075973;28;20040;-81
2022/03/20 08:49:56;;;;;;;27.48;14.85;;;;;;;9.70;30.95;102355.97;5047069;28;20392;-81
2022/03/20 08:52:45;;;;;;;25.08;14.38;;;;;;;9.71;30.98;102350.75;5061135;28;20043;-81
2022/03/20 08:55:33;;;;;;;25.88;13.50;;;;;;;9.46;30.52;102353.78;5061127;28;20045;-83
2022/03/20 08:58:17;;;;;;;28.10;15.45;;;;;;;9.59;30.75;102353.16;5061217;28;20047;-81
2022/03/20 09:01:02;;;;;;;26.63;15.15;;;;;;;9.34;30.28;102330.88;5075911;28;20353;-82
2022/03/20 09:03:49;;;;;;;23.33;13.88;;;;;;;9.27;30.30;102340.31;5064439;28;20404;-81
2022/03/20 09:06:34;;;;;;;27.17;14.57;;;;;;;9.64;31.25;102350.63;5065556;28;20119;-81
2022/03/20 09:09:19;;;;;;;69.50;38.22;;;;;;;9.76;31.31;102340.41;5080290;28;20044;-82
2022/03/20 09:12:04;;;;;;;27.10;15.02;;;;;;;9.98;30.43;102331.19;5080467;28;20045;-82
2022/03/20 09:14:49;;;;;;;27.10;15.43;;;;;;;9.96;30.38;102335.50;5079969;28;20036;-81
2022/03/20 09:20:39;;;;;;;28.33;15.60;;;;;;;10.08;30.70;102333.13;5064936;28;20068;-81
2022/03/20 09:23:24;;;;;;;24.17;13.55;;;;;;;10.01;30.12;102328.63;5064890;28;20048;-82
2022/03/20 09:26:09;;;;;;;26.85;14.70;;;;;;;10.19;29.94;102320.19;5058852;28;20060;-82
2022/03/20 09:28:54;;;;;;;34.65;19.52;;;;;;;10.09;29.33;102320.91;5059829;28;20037;-81
2022/03/20 09:31:38;;;;;;;25.95;14.85;;;;;;;10.42;29.97;102333.69;5059419;28;20037;-81
2022/03/20 09:34:23;;;;;;;23.70;14.80;;;;;;;10.27;29.69;102319.50;5059025;28;20068;-82
2022/03/20 09:37:07;;;;;;;31.95;17.58;;;;;;;10.42;30.15;102331.94;5058662;28;20418;-81
2022/03/20 09:39:51;;;;;;;33.55;17.77;;;;;;;10.82;29.33;102331.63;5059660;28;20091;-82
2022/03/20 09:42:36;;;;;;;29.80;15.18;;;;;;;10.80;29.15;102338.63;5059380;28;20114;-81
2022/03/20 09:45:21;;;;;;;30.65;16.08;;;;;;;10.77;28.84;102329.84;5076568;28;20052;-82
2022/03/20 09:48:07;;;;;;;20.15;12.98;;;;;;;10.51;29.69;102332.09;5078482;28;20036;-82
2022/03/20 09:50:51;;;;;;;26.08;13.93;;;;;;;10.77;28.77;102335.09;5077454;28;20041;-80
2022/03/20 09:53:35;;;;;;;31.92;15.18;;;;;;;11.14;28.70;102334.69;5079076;28;20044;-81
2022/03/20 09:56:20;;;;;;;27.65;13.68;;;;;;;11.15;28.64;102339.09;5078815;28;20123;-81
2022/03/20 09:59:04;;;;;;;27.08;15.30;;;;;;;11.27;28.63;102330.47;5079579;28;20047;-82
2022/03/20 10:01:49;;;;;;;25.42;14.02;;;;;;;11.29;28.93;102331.38;5078839;28;20045;-83
2022/03/20 10:05:09;;;;;;;26.85;13.23;;;;;;;11.39;28.41;102328.88;5064664;28;20040;-82
2022/03/20 10:08:10;;;;;;;24.42;13.60;;;;;;;11.31;28.34;102327.94;5079287;28;20044;-81
2022/03/20 10:11:16;;;;;;;27.02;15.25;;;;;;;11.65;28.08;102336.16;5078548;28;20045;-82
2022/03/20 10:14:10;;;;;;;23.77;12.98;;;;;;;11.50;28.12;102334.25;5076601;28;20041;-82
2022/03/20 10:17:09;;;;;;;24.95;12.82;;;;;;;11.52;27.86;102329.03;5077676;28;20032;-79
2022/03/20 10:19:55;;;;;;;25.02;13.50;;;;;;;11.48;27.64;102320.25;5077852;28;20071;-78
2022/03/20 10:22:40;;;;;;;19.42;12.40;;;;;;;11.30;27.77;102331.38;5077690;28;20131;-80
2022/03/20 10:25:24;;;;;;;28.88;16.30;;;;;;;11.21;28.48;102312.91;5061809;28;20057;-80
2022/03/20 10:28:08;;;;;;;23.02;14.05;;;;;;;11.55;27.31;102318.56;5075992;28;20044;-80
2022/03/20 10:31:00;;;;;;;22.45;13.18;;;;;;;11.66;27.59;102306.41;5076739;28;20040;-79
2022/03/20 10:33:59;;;;;;;31.48;15.55;;;;;;;11.88;27.68;102304.91;5075897;28;20040;-80
2022/03/20 10:36:44;;;;;;;20.10;12.45;;;;;;;11.78;28.27;102311.78;5076297;28;20040;-80
2022/03/20 10:39:29;;;;;;;21.52;12.48;;;;;;;11.95;27.94;102305.84;5077183;28;20041;-80
2022/03/20 10:42:15;;;;;;;19.90;12.82;;;;;;;12.02;27.28;102308.53;5075930;28;20043;-80
2022/03/20 10:45:08;;;;;;;18.50;11.60;;;;;;;11.90;27.00;102311.06;5075975;28;20051;-80
2022/03/20 10:48:00;;;;;;;20.73;12.00;;;;;;;12.19;27.71;102307.78;5077347;28;20044;-80
2022/03/20 10:50:48;;;;;;;31.03;15.43;;;;;;;12.47;27.66;102307.13;5078949;28;20534;-80
2022/03/20 10:53:33;;;;;;;21.23;13.20;;;;;;;12.72;26.92;102302.91;5049424;28;20305;-80
2022/03/20 10:56:18;;;;;;;18.55;11.38;;;;;;;12.72;25.98;102312.53;5078189;28;20044;-80
2022/03/20 10:59:13;;;;;;;19.20;12.20;;;;;;;12.54;25.80;102285.25;5077716;28;20044;-80
2022/03/20 11:01:58;;;;;;;18.95;12.27;;;;;;;12.36;25.98;102309.69;5077864;28;20044;-80
2022/03/20 11:04:43;;;;;;;29.80;15.00;;;;;;;12.59;26.11;102303.69;5063265;28;20048;-80
2022/03/20 11:07:28;;;;;;;22.15;12.65;;;;;;;12.55;25.92;102294.94;5078280;28;20040;-79
2022/03/20 11:10:13;;;;;;;24.17;12.63;;;;;;;12.32;26.40;102300.03;5077038;28;20037;-80
2022/03/20 11:12:58;;;;;;;23.77;13.23;;;;;;;12.35;25.70;102299.19;5063410;28;20068;-80
2022/03/20 11:15:45;;;;;;;25.13;14.73;;;;;;;12.39;26.17;102303.56;5077552;28;20090;-80
2022/03/20 11:18:32;;;;;;;19.42;13.50;;;;;;;12.45;26.91;102290.47;5077608;28;20040;-80
2022/03/20 11:21:20;;;;;;;20.88;13.52;;;;;;;12.72;26.29;102289.75;5077341;28;20041;-80
2022/03/20 11:24:06;;;;;;;24.00;14.05;;;;;;;12.81;26.08;102287.19;5076988;28;20045;-80
2022/03/20 11:26:53;;;;;;;17.15;11.52;;;;;;;12.61;25.96;102288.84;5076091;28;20170;-80
2022/03/20 11:29:51;;;;;;;22.17;12.55;;;;;;;12.82;25.66;102277.53;5077188;28;20045;-80
2022/03/20 11:32:35;;;;;;;28.25;14.18;;;;;;;13.08;25.70;102269.75;5076810;28;20169;-80
2022/03/20 11:35:28;;;;;;;18.98;12.25;;;;;;;13.12;25.19;102262.75;5062754;28;20345;-80
2022/03/20 11:38:18;;;;;;;23.88;14.70;;;;;;;13.13;25.75;102267.13;5076927;28;20078;-80
2022/03/20 11:41:07;;;;;;;22.42;13.52;;;;;;;13.26;26.14;102264.59;5077642;28;20032;-80
2022/03/20 11:44:11;;;;;;;23.95;13.80;;;;;;;13.48;25.67;102262.84;5062510;28;20731;-80
2022/03/20 11:47:17;;;;;;;28.25;16.90;;;;;;;13.45;25.17;102259.34;5077499;28;20110;-80
2022/03/20 11:50:22;;;;;;;25.88;15.13;;;;;;;13.48;25.60;102261.97;5062051;28;20044;-80
2022/03/20 11:53:09;;;;;;;33.95;19.88;;;;;;;13.56;25.49;102247.97;5075984;28;20433;-80
2022/03/20 11:55:54;;;;;;;24.38;14.05;;;;;;;13.61;25.18;102245.31;5062572;28;20059;-85
2022/03/20 11:58:40;;;;;;;26.77;16.75;;;;;;;13.44;25.82;102250.56;5076028;28;20353;-80
2022/03/20 12:01:24;;;;;;;29.20;17.50;;;;;;;13.43;25.57;102222.50;5062143;28;20040;-79
2022/03/20 12:04:14;;;;;;;26.17;15.85;;;;;;;13.39;26.63;102236.53;5075966;28;20403;-79
2022/03/20 12:07:19;;;;;;;38.05;20.73;;;;;;;13.41;25.95;102220.72;5076575;28;20389;-79
2022/03/20 12:10:20;;;;;;;27.75;14.63;;;;;;;13.50;25.29;102219.00;5076112;28;20036;-80
2022/03/20 12:13:12;;;;;;;41.42;21.33;;;;;;;13.72;26.20;102219.88;5076653;28;20044;-80
2022/03/20 12:15:57;;;;;;;36.50;19.08;;;;;;;13.83;25.81;102222.50;5076760;28;20040;-80
2022/03/20 12:19:07;;;;;;;28.70;15.73;;;;;;;13.54;26.09;102215.47;5062083;28;20055;-80
2022/03/20 12:21:55;;;;;;;26.98;16.27;;;;;;;13.51;26.06;102210.22;5076949;28;20052;-80
2022/03/20 12:24:54;;;;;;;23.77;15.07;;;;;;;13.60;26.39;102211.09;5075625;28;20040;-81
2022/03/20 12:27:39;;;;;;;30.10;17.52;;;;;;;13.70;26.29;102205.81;5067374;28;20036;-80
2022/03/20 12:30:27;;;;;;;39.92;23.98;;;;;;;13.83;26.71;102200.56;5081555;28;20044;-80
2022/03/20 12:33:23;;;;;;;32.90;16.95;;;;;;;13.87;25.69;102181.22;5096402;28;20044;-80
2022/03/20 12:36:26;;;;;;;23.13;13.85;;;;;;;13.71;26.29;102181.25;5096098;28;20429;-80
2022/03/20 12:39:12;;;;;;;48.05;24.20;;;;;;;14.03;26.09;102186.47;5080604;28;20444;-80
2022/03/20 12:41:57;;;;;;;51.15;23.52;;;;;;;14.24;27.01;102177.66;5081071;28;20419;-80
2022/03/20 12:44:46;;;;;;;31.88;16.58;;;;;;;13.92;26.37;102168.94;5079657;28;20051;-80
2022/03/20 12:47:32;;;;;;;27.05;14.88;;;;;;;13.84;25.38;102162.81;5079782;28;20123;-84
2022/03/20 12:50:20;;;;;;;29.52;15.10;;;;;;;13.82;25.47;102164.56;5096521;28;20047;-83
2022/03/20 12:53:21;;;;;;;29.55;15.40;;;;;;;13.72;25.83;102161.06;5064444;28;20387;-84
2022/03/20 12:56:49;;;;;;;21.20;12.32;;;;;;;13.78;25.74;102166.34;5066129;28;20043;-83
2022/03/20 12:59:23;;;;;;;21.02;13.20;;;;;;;14.01;26.39;102151.38;5080364;28;20060;-84
2022/03/20 13:02:10;;;;;;;28.80;16.75;;;;;;;14.14;25.84;102143.44;5096056;28;20070;-84
2022/03/20 13:05:08;;;;;;;24.45;13.57;;;;;;;13.64;25.61;102147.03;5096674;28;20428;-85
2022/03/20 13:07:53;;;;;;;25.77;13.52;;;;;;;13.87;25.93;102141.72;5081205;28;20036;-84
2022/03/20 13:10:39;;;;;;;42.88;21.55;;;;;;;13.86;25.34;102139.97;5095976;28;20088;-84
2022/03/20 13:13:28;;;;;;;17.52;11.02;;;;;;;13.82;25.22;102133.84;5096064;28;20044;-84